createdAt,value
2022-11-04T00:07:52.136Z,98501.55
2022-11-04T00:17:24.473Z,98487.97
2022-11-04T00:27:00.238Z,98486.36
2022-11-04T00:36:32.357Z,98496.08
2022-11-04T00:46:07.696Z,98468.33
2022-11-04T00:55:39.680Z,98504.51
2022-11-04T01:05:13.293Z,98520.34
2022-11-04T01:14:48.698Z,98514.24
2022-11-04T01:24:20.489Z,98552.77
2022-11-04T01:33:54.532Z,98548.13
2022-11-04T01:43:30.339Z,98548.80
2022-11-04T01:53:02.552Z,98548.99
2022-11-04T02:02:36.571Z,98540.73
2022-11-04T02:12:11.877Z,98563.27
2022-11-04T02:21:45.662Z,98567.58
2022-11-04T02:31:17.501Z,98575.33
2022-11-04T02:40:51.795Z,98591.38
2022-11-04T02:50:27.381Z,98604.67
2022-11-04T02:59:59.431Z,98606.16
2022-11-04T03:09:33.266Z,98607.45
2022-11-04T03:19:08.565Z,98608.77
2022-11-04T03:28:40.861Z,98614.77
2022-11-04T03:38:16.268Z,98636.98
2022-11-04T03:47:48.047Z,98640.38
2022-11-04T03:57:22.212Z,98651.65
2022-11-04T04:06:57.557Z,98648.52
2022-11-04T04:16:29.956Z,98628.15
2022-11-04T04:26:03.658Z,98625.05
2022-11-04T04:35:38.697Z,98621.80
2022-11-04T04:45:12.660Z,98623.18
2022-11-04T04:54:44.304Z,98617.84
2022-11-04T05:04:18.310Z,98618.78
2022-11-04T05:13:52.461Z,98629.66
2022-11-04T05:23:26.241Z,98631.21
2022-11-04T05:33:03.362Z,98618.34
2022-11-04T05:42:34.651Z,98623.65
2022-11-04T05:52:10.338Z,98610.46
2022-11-04T06:01:44.028Z,98589.11
2022-11-04T06:11:15.697Z,98577.56
2022-11-04T06:20:49.531Z,98592.37
2022-11-04T06:30:23.836Z,98613.23
2022-11-04T06:39:58.663Z,98616.78
2022-11-04T06:49:32.486Z,98630.28
2022-11-04T06:59:04.440Z,98639.18
2022-11-04T07:08:40.036Z,98669.83
2022-11-04T07:18:12.474Z,98652.45
2022-11-04T07:27:44.548Z,98677.31
2022-11-04T07:37:19.167Z,98680.16
2022-11-04T07:46:51.441Z,98695.90
2022-11-04T07:56:25.904Z,98689.56
2022-11-04T08:05:59.063Z,98694.64
2022-11-04T08:15:34.970Z,98680.81
2022-11-04T08:25:07.327Z,98680.41
2022-11-04T08:34:41.527Z,98686.31
2022-11-04T08:44:15.827Z,98689.31
2022-11-04T08:53:50.963Z,98680.88
2022-11-04T09:03:24.603Z,98675.66
2022-11-04T09:12:56.058Z,98677.66
2022-11-04T09:22:31.919Z,98690.40
2022-11-04T09:32:03.598Z,98696.72
2022-11-04T09:33:06.257Z,98694.58
2022-11-04T09:34:08.468Z,98693.60
2022-11-04T09:35:10.900Z,98690.67
2022-11-04T09:36:13.380Z,98686.73
2022-11-04T09:37:15.697Z,98689.20
2022-11-04T09:38:18.234Z,98687.69
2022-11-04T09:39:20.601Z,98690.09
2022-11-04T09:40:23.055Z,98688.80
2022-11-04T09:49:55.762Z,98705.72
2022-11-04T09:50:59.240Z,98704.13
2022-11-04T09:52:03.255Z,98709.31
2022-11-04T09:53:05.658Z,98708.06
2022-11-04T09:54:08.061Z,98702.44
2022-11-04T09:55:10.492Z,98701.91
2022-11-04T09:56:12.782Z,98712.21
2022-11-04T09:57:15.183Z,98714.69
2022-11-04T09:58:17.706Z,98712.39
2022-11-04T09:59:21.571Z,98714.56
2022-11-04T10:00:23.945Z,98701.91
2022-11-04T10:01:26.516Z,98707.92
2022-11-04T10:02:30.491Z,98709.27
2022-11-04T10:03:34.289Z,98713.94
2022-11-04T10:04:36.602Z,98714.52
2022-11-04T10:05:39.037Z,98711.53
2022-11-04T10:06:41.491Z,98717.88
2022-11-04T10:07:43.886Z,98719.34
2022-11-04T10:08:46.282Z,98721.36
2022-11-04T10:09:48.664Z,98722.16
2022-11-04T10:10:51.140Z,98725.59
2022-11-04T10:11:53.521Z,98730.58
2022-11-04T10:12:57.641Z,98723.45
2022-11-04T10:13:59.846Z,98722.71
2022-11-04T10:15:03.299Z,98726.95
2022-11-04T10:16:05.616Z,98722.64
2022-11-04T10:17:08.020Z,98727.16
2022-11-04T10:18:10.421Z,98719.64
2022-11-04T10:19:12.862Z,98723.41
2022-11-04T10:20:15.306Z,98721.90
2022-11-04T10:21:17.667Z,98728.28
2022-11-04T10:22:20.071Z,98724.84
2022-11-04T10:23:24.226Z,98723.81
2022-11-04T10:24:26.423Z,98725.46
2022-11-04T10:25:30.462Z,98726.97
2022-11-04T10:26:33.744Z,98723.16
2022-11-04T10:27:36.112Z,98719.05
2022-11-04T10:28:40.154Z,98722.03
2022-11-04T10:29:42.444Z,98716.73
2022-11-04T10:30:44.881Z,98717.83
2022-11-04T10:31:47.307Z,98716.05
2022-11-04T10:32:49.749Z,98717.08
2022-11-04T10:33:52.191Z,98713.53
2022-11-04T10:34:54.609Z,98718.19
2022-11-04T10:35:57.055Z,98721.25
2022-11-04T10:36:59.429Z,98722.08
2022-11-04T10:46:35.710Z,98715.62
2022-11-04T10:47:33.851Z,98716.81
2022-11-04T10:48:36.312Z,98713.63
2022-11-04T10:49:38.763Z,98713.70
2022-11-04T10:50:41.193Z,98710.58
2022-11-04T10:51:45.327Z,98710.75
2022-11-04T10:52:47.718Z,98710.24
2022-11-04T10:53:50.082Z,98713.17
2022-11-04T10:54:54.104Z,98709.13
2022-11-04T10:55:58.901Z,98701.33
2022-11-04T10:57:01.159Z,98706.09
2022-11-04T10:58:04.546Z,98709.47
2022-11-04T10:59:06.845Z,98704.91
2022-11-04T11:00:09.226Z,98703.28
2022-11-04T11:01:15.090Z,98702.45
2022-11-04T11:02:15.063Z,98702.85
2022-11-04T11:03:17.361Z,98698.80
2022-11-04T11:04:19.793Z,98700.03
2022-11-04T11:05:22.236Z,98700.68
2022-11-04T11:06:24.729Z,98701.47
2022-11-04T11:07:27.099Z,98702.67
2022-11-04T11:08:29.533Z,98699.03
2022-11-04T11:09:31.904Z,98700.80
2022-11-04T11:10:34.344Z,98702.42
2022-11-04T11:11:38.324Z,98704.75
2022-11-04T11:12:50.900Z,98706.38
2022-11-04T11:13:44.539Z,98704.20
2022-11-04T11:14:48.605Z,98700.16
2022-11-04T11:15:52.377Z,98705.33
2022-11-04T11:16:54.691Z,98705.88
2022-11-04T11:17:58.690Z,98700.39
2022-11-04T11:19:00.964Z,98699.75
2022-11-04T11:20:03.382Z,98697.16
2022-11-04T11:21:05.817Z,98694.42
2022-11-04T11:22:08.282Z,98699.48
2022-11-04T11:23:11.050Z,98694.75
2022-11-04T11:24:14.661Z,98692.61
2022-11-04T11:25:18.525Z,98692.70
2022-11-04T11:26:20.818Z,98696.67
2022-11-04T11:27:24.852Z,98695.95
2022-11-04T11:28:27.148Z,98693.89
2022-11-04T11:29:29.531Z,98691.60
2022-11-04T11:30:32.099Z,98691.38
2022-11-04T11:31:34.531Z,98694.92
2022-11-04T11:32:38.572Z,98695.07
2022-11-04T11:33:40.836Z,98687.49
2022-11-04T11:34:43.245Z,98691.17
2022-11-04T11:35:45.696Z,98689.42
2022-11-04T11:36:49.729Z,98691.84
2022-11-04T11:37:52.036Z,98688.94
2022-11-04T11:38:54.403Z,98687.93
2022-11-04T11:39:56.819Z,98687.88
2022-11-04T11:41:23.084Z,98688.16
2022-11-04T11:42:01.680Z,98691.08
2022-11-04T11:43:04.111Z,98694.63
2022-11-04T11:44:08.121Z,98693.33
2022-11-04T11:53:38.509Z,98695.20
2022-11-04T11:54:40.940Z,98694.72
2022-11-04T11:55:44.986Z,98692.89
2022-11-04T11:57:11.745Z,98698.67
2022-11-04T12:01:03.416Z,98704.33
2022-11-04T12:02:00.947Z,98707.63
2022-11-04T12:03:03.713Z,98709.33
2022-11-04T12:06:16.647Z,98706.80
2022-11-04T12:09:22.909Z,98703.16
2022-11-04T12:10:48.911Z,98704.77
2022-11-04T12:11:26.974Z,98707.05
2022-11-04T12:12:29.396Z,98703.97
2022-11-04T12:13:32.041Z,98707.77
2022-11-04T12:23:04.719Z,98705.52
2022-11-04T12:24:07.035Z,98703.53
2022-11-04T12:25:11.073Z,98707.66
2022-11-04T12:26:13.397Z,98703.67
2022-11-04T12:27:15.852Z,98705.22
2022-11-04T12:28:18.275Z,98700.53
2022-11-04T12:29:20.714Z,98699.57
2022-11-04T12:30:31.124Z,98705.77
2022-11-04T12:31:27.070Z,98698.45
2022-11-04T12:32:31.135Z,98704.05
2022-11-04T12:33:33.438Z,98698.09
2022-11-04T12:34:35.869Z,98704.09
2022-11-04T12:35:39.881Z,98698.73
2022-11-04T12:36:44.054Z,98701.91
2022-11-04T12:37:44.620Z,98695.47
2022-11-04T12:38:47.112Z,98695.42
2022-11-04T12:39:49.506Z,98698.16
2022-11-04T12:41:11.353Z,98696.48
2022-11-04T12:42:58.399Z,98696.82
2022-11-04T12:44:00.692Z,98696.95
2022-11-04T12:45:03.040Z,98693.55
2022-11-04T12:46:05.302Z,98697.13
2022-11-04T12:47:07.703Z,98697.71
2022-11-04T12:48:11.752Z,98698.03
2022-11-04T12:49:14.045Z,98698.02
2022-11-04T12:50:16.523Z,98694.73
2022-11-04T12:51:18.912Z,98695.52
2022-11-04T12:52:21.360Z,98697.16
2022-11-04T12:53:23.814Z,98691.67
2022-11-04T12:54:27.156Z,98690.19
2022-11-04T12:55:29.482Z,98697.27
2022-11-04T12:56:33.486Z,98699.00
2022-11-04T12:57:35.830Z,98693.35
2022-11-04T12:58:38.220Z,98699.82
2022-11-04T12:59:40.610Z,98696.53
2022-11-04T13:00:46.186Z,98700.75
2022-11-04T13:01:48.320Z,98695.48
2022-11-04T13:02:50.605Z,98691.44
2022-11-04T13:03:53.004Z,98697.73
2022-11-04T13:04:57.111Z,98694.75
2022-11-04T13:05:59.430Z,98696.45
2022-11-04T13:07:03.333Z,98704.59
2022-11-04T13:08:08.638Z,98704.67
2022-11-04T13:09:09.642Z,98701.69
2022-11-04T13:10:11.985Z,98695.61
2022-11-04T13:11:14.417Z,98696.77
2022-11-04T13:12:18.484Z,98696.59
2022-11-04T13:13:20.778Z,98691.08
2022-11-04T13:14:23.212Z,98694.56
2022-11-04T13:15:25.621Z,98692.48
2022-11-04T13:16:28.019Z,98689.84
2022-11-04T13:17:32.066Z,98692.94
2022-11-04T13:18:35.972Z,98692.17
2022-11-04T13:19:39.866Z,98693.68
2022-11-04T13:20:43.747Z,98696.47
2022-11-04T13:21:46.108Z,98691.41
2022-11-04T13:22:48.506Z,98703.41
2022-11-04T13:23:52.513Z,98704.03
2022-11-04T13:24:54.799Z,98704.34
2022-11-04T13:25:58.825Z,98707.20
2022-11-04T13:27:01.067Z,98714.05
2022-11-04T13:28:05.119Z,98706.07
2022-11-04T13:29:09.345Z,98711.45
2022-11-04T13:30:12.864Z,98714.73
2022-11-04T13:31:15.129Z,98715.98
2022-11-04T13:32:17.560Z,98716.47
2022-11-04T13:33:20.010Z,98713.88
2022-11-04T13:34:23.410Z,98719.27
2022-11-04T13:35:24.801Z,98719.47
2022-11-04T13:36:28.859Z,98721.99
2022-11-04T13:37:32.767Z,98721.66
2022-11-04T13:38:35.037Z,98727.75
2022-11-04T13:39:39.059Z,98724.86
2022-11-04T13:40:42.373Z,98723.08
2022-11-04T13:41:46.299Z,98722.55
2022-11-04T13:42:48.541Z,98724.41
2022-11-04T13:43:50.998Z,98726.05
2022-11-04T13:44:54.382Z,98718.59
2022-11-04T13:45:56.802Z,98728.18
2022-11-04T13:47:00.781Z,98724.66
2022-11-04T13:48:03.065Z,98730.67
2022-11-04T13:49:05.549Z,98732.03
2022-11-04T13:50:09.568Z,98733.44
2022-11-04T13:51:13.523Z,98737.38
2022-11-04T13:52:17.426Z,98738.77
2022-11-04T13:53:19.742Z,98742.36
2022-11-04T13:54:23.813Z,98740.76
2022-11-04T13:55:26.079Z,98747.63
2022-11-04T13:56:34.473Z,98747.39
2022-11-04T13:57:32.333Z,98746.26
2022-11-04T13:58:34.649Z,98752.50
2022-11-04T13:59:37.208Z,98749.04
2022-11-04T14:00:39.525Z,98750.55
2022-11-04T14:01:42.045Z,98758.06
2022-11-04T14:02:44.450Z,98750.09
2022-11-04T14:03:46.814Z,98758.06
2022-11-04T14:04:50.932Z,98754.18
2022-11-04T14:05:54.861Z,98753.34
2022-11-04T14:06:58.702Z,98762.09
2022-11-04T14:08:00.984Z,98763.17
2022-11-04T14:09:04.985Z,98762.56
2022-11-04T14:10:07.374Z,98762.67
2022-11-04T14:11:11.379Z,98769.70
2022-11-04T14:12:13.631Z,98774.47
2022-11-04T14:13:16.003Z,98774.23
2022-11-04T14:14:18.451Z,98770.01
2022-11-04T14:15:22.462Z,98771.69
2022-11-04T14:16:24.749Z,98770.16
2022-11-04T14:17:27.217Z,98772.92
2022-11-04T14:18:29.605Z,98776.06
2022-11-04T14:19:32.098Z,98772.09
2022-11-04T14:20:34.538Z,98774.83
2022-11-04T14:21:38.584Z,98776.73
2022-11-04T14:22:42.505Z,98774.59
2022-11-04T14:23:44.881Z,98771.80
2022-11-04T14:24:48.900Z,98770.86
2022-11-04T14:25:51.279Z,98774.28
2022-11-04T14:26:53.755Z,98772.45
2022-11-04T14:27:56.133Z,98773.41
2022-11-04T14:29:00.179Z,98782.08
2022-11-04T14:30:02.447Z,98776.85
2022-11-04T14:31:04.909Z,98778.80
2022-11-04T14:32:07.342Z,98779.90
2022-11-04T14:33:11.598Z,98783.13
2022-11-04T14:34:13.662Z,98782.14
2022-11-04T14:35:17.634Z,98786.28
2022-11-04T14:36:21.548Z,98787.25
2022-11-04T14:37:23.868Z,98786.23
2022-11-04T14:38:26.291Z,98783.63
2022-11-04T14:39:28.709Z,98793.08
2022-11-04T14:40:32.710Z,98789.27
2022-11-04T14:41:36.593Z,98792.97
2022-11-04T14:42:38.907Z,98789.30
2022-11-04T14:43:41.289Z,98792.07
2022-11-04T14:44:46.827Z,98792.45
2022-11-04T14:45:47.736Z,98790.33
2022-11-04T14:46:50.026Z,98791.48
2022-11-04T14:47:52.420Z,98793.70
2022-11-04T14:48:56.548Z,98792.55
2022-11-04T14:49:58.840Z,98794.84
2022-11-04T14:51:01.265Z,98794.32
2022-11-04T14:52:03.685Z,98795.14
2022-11-04T14:53:07.941Z,98796.48
2022-11-04T14:54:10.042Z,98793.05
2022-11-04T14:55:14.095Z,98800.45
2022-11-04T14:56:22.067Z,98796.09
2022-11-04T14:57:20.335Z,98802.98
2022-11-04T14:58:22.647Z,98806.66
2022-11-04T14:59:27.622Z,98806.59
2022-11-04T15:00:29.861Z,98809.74
2022-11-04T15:01:34.828Z,98809.63
2022-11-04T15:02:36.316Z,98813.80
2022-11-04T15:04:41.814Z,98816.41
2022-11-04T15:05:46.776Z,98819.36
2022-11-04T15:06:54.628Z,98821.33
2022-11-04T15:07:52.085Z,98819.87
2022-11-04T15:08:54.362Z,98818.80
2022-11-04T15:09:56.745Z,98817.12
2022-11-04T15:10:59.144Z,98819.07
2022-11-04T15:12:02.537Z,98819.70
2022-11-04T15:13:04.876Z,98819.38
2022-11-04T15:14:08.273Z,98826.33
2022-11-04T15:15:10.636Z,98820.53
2022-11-04T15:16:13.008Z,98822.48
2022-11-04T15:25:44.220Z,98834.34
2022-11-04T15:26:48.213Z,98836.57
2022-11-04T15:27:50.545Z,98837.66
2022-11-04T15:28:52.959Z,98844.10
2022-11-04T15:29:57.042Z,98845.15
2022-11-04T15:31:00.903Z,98839.94
2022-11-04T15:32:05.038Z,98837.70
2022-11-04T15:33:05.626Z,98849.39
2022-11-04T15:34:11.736Z,98849.05
2022-11-04T15:35:10.473Z,98844.73
2022-11-04T15:36:12.908Z,98849.08
2022-11-04T15:37:15.326Z,98848.65
2022-11-04T15:38:17.834Z,98853.70
2022-11-04T15:39:20.231Z,98847.67
2022-11-04T15:40:22.711Z,98852.86
2022-11-04T15:41:26.711Z,98856.13
2022-11-04T15:50:56.916Z,98867.85
2022-11-04T16:00:30.777Z,98869.03
2022-11-04T16:01:33.257Z,98868.39
2022-11-04T16:11:07.748Z,98876.13
2022-11-04T16:20:40.007Z,98878.58
2022-11-04T16:30:13.529Z,98887.14
2022-11-04T16:39:47.315Z,98901.59
2022-11-04T16:49:20.522Z,98928.59
2022-11-04T16:58:54.172Z,98937.62
2022-11-04T17:08:29.238Z,98937.49
2022-11-04T17:18:03.151Z,98953.05
2022-11-04T17:27:36.654Z,98965.53
2022-11-04T17:37:10.559Z,98979.34
2022-11-04T17:46:44.441Z,98993.03
2022-11-04T17:56:16.746Z,99003.52
2022-11-04T18:05:50.665Z,99023.86
2022-11-04T18:15:24.725Z,99029.19
2022-11-04T18:16:27.302Z,99029.91
2022-11-04T18:26:01.995Z,99036.41
2022-11-04T18:35:35.424Z,99054.31
2022-11-04T18:45:07.098Z,99061.05
2022-11-04T18:54:41.153Z,99069.31
2022-11-04T19:04:15.084Z,99076.00
2022-11-04T19:13:48.910Z,99089.64
2022-11-04T19:23:22.417Z,99098.09
2022-11-04T19:32:56.464Z,99105.84
2022-11-04T19:42:31.675Z,99123.91
2022-11-04T19:52:05.239Z,99134.13
2022-11-04T19:53:07.639Z,99139.06
2022-11-04T20:02:42.340Z,99148.84
2022-11-04T20:12:13.924Z,99159.81
2022-11-04T20:21:47.138Z,99174.84
2022-11-04T20:31:22.517Z,99191.28
2022-11-04T20:40:56.307Z,99203.46
2022-11-04T20:50:28.553Z,99218.26
2022-11-04T21:00:02.199Z,99222.13
2022-11-04T21:09:35.899Z,99235.07
2022-11-04T21:19:10.030Z,99244.19
2022-11-04T21:28:43.978Z,99255.31
2022-11-04T21:38:19.106Z,99265.13
2022-11-04T21:47:53.060Z,99275.98
2022-11-04T21:57:26.281Z,99288.45
2022-11-04T22:06:58.474Z,99295.02
2022-11-04T22:16:34.101Z,99303.87
2022-11-04T22:26:07.799Z,99310.27
2022-11-04T22:35:41.110Z,99307.93
2022-11-04T22:45:16.643Z,99318.61
2022-11-04T22:54:47.411Z,99322.37
2022-11-04T23:04:20.707Z,99337.47
2022-11-04T23:13:54.509Z,99335.03
2022-11-04T23:23:28.455Z,99345.08
2022-11-04T23:33:02.352Z,99346.78
2022-11-04T23:42:35.559Z,99364.22
2022-11-04T23:52:09.755Z,99371.55
